Time;durP1;ratioP1;P1;durP2;ratioP2;P2;SDS_P1;SDS_P2;PMS_P1;PMS_P2;Temp;Humidity;BMP_temperature;BMP_pressure;BME280_temperature;BME280_humidity;BME280_pressure;Samples;Min_cycle;Max_cycle;Signal;HPM_P1;HPM_P2
2022/02/06 00:00:10;;;;;;;5.53;1.38;;;;;;;1.77;72.35;97061.78;2079594;28;20209;-66
2022/02/06 00:01:12;;;;;;;4.40;1.77;;;;;;;1.72;72.48;97063.63;2079701;28;20201;-66
2022/02/06 00:02:21;;;;;;;7.85;1.30;;;;;;;1.73;72.69;97063.56;2079524;28;20711;-66
2022/02/06 00:03:22;;;;;;;3.53;1.00;;;;;;;1.72;72.49;97072.19;2079127;28;20639;-66
2022/02/06 00:04:24;;;;;;;9.75;1.63;;;;;;;1.68;72.63;97062.00;2079898;28;20236;-66
2022/02/06 00:05:25;;;;;;;10.65;1.75;;;;;;;1.67;72.89;97066.31;2079581;28;20235;-66
2022/02/06 00:06:30;;;;;;;6.78;1.10;;;;;;;1.66;72.47;97064.63;2080070;28;20633;-66
2022/02/06 00:07:31;;;;;;;19.85;2.50;;;;;;;1.68;72.44;97064.59;2079097;28;20232;-66
2022/02/06 00:08:33;;;;;;;4.90;1.30;;;;;;;1.80;71.93;97064.25;2079327;28;20193;-66
2022/02/06 00:09:35;;;;;;;4.80;0.95;;;;;;;1.90;71.22;97041.59;2079282;28;20227;-66
2022/02/06 00:10:57;;;;;;;5.72;1.35;;;;;;;1.97;71.03;97045.72;2078449;28;20253;-66
2022/02/06 00:11:58;;;;;;;3.15;1.52;;;;;;;2.05;70.94;97048.09;2080022;28;20210;-66
2022/02/06 00:13:00;;;;;;;3.13;0.93;;;;;;;1.91;70.90;97028.66;2080022;28;20284;-66
2022/02/06 00:14:01;;;;;;;5.32;1.30;;;;;;;1.96;70.92;97041.44;2079712;28;20193;-66
2022/02/06 00:15:03;;;;;;;5.85;1.13;;;;;;;1.96;71.19;97044.03;2079291;28;20224;-66
2022/02/06 00:16:05;;;;;;;8.50;1.20;;;;;;;1.91;71.43;97046.72;2078330;28;20204;-66
2022/02/06 00:17:08;;;;;;;5.25;1.20;;;;;;;1.85;71.58;97040.91;2079783;28;20216;-66
2022/02/06 00:18:09;;;;;;;3.67;1.10;;;;;;;1.76;71.26;97017.03;2079858;28;20193;-66
2022/02/06 00:19:11;;;;;;;22.00;2.00;;;;;;;1.88;71.06;97030.47;2079835;28;20197;-67
2022/02/06 00:20:14;;;;;;;10.52;1.30;;;;;;;1.88;71.13;97044.25;2079308;28;20204;-66
2022/02/06 00:21:18;;;;;;;6.85;1.70;;;;;;;1.86;71.60;97040.00;2079886;28;20202;-66
2022/02/06 00:23:31;;;;;;;2.97;1.02;;;;;;;1.89;71.61;97034.75;2079992;28;21153;-66
2022/02/06 00:25:20;;;;;;;5.35;1.60;;;;;;;1.86;71.59;97035.69;2079072;28;20240;-66
2022/02/06 00:26:03;;;;;;;3.85;1.48;;;;;;;1.85;71.82;97026.25;2068926;28;20225;-66
2022/02/06 00:27:10;;;;;;;2.83;1.00;;;;;;;1.88;71.38;97033.06;2079977;28;20190;-66
2022/02/06 00:28:32;;;;;;;4.03;1.10;;;;;;;1.91;71.34;97026.06;2079714;28;20201;-67
2022/02/06 00:29:51;;;;;;;7.05;1.30;;;;;;;2.05;70.54;97023.09;2079905;28;20207;-66
2022/02/06 00:31:17;;;;;;;7.13;1.10;;;;;;;2.00;71.19;97019.81;2079003;28;20263;-65
2022/02/06 00:32:45;;;;;;;5.03;0.88;;;;;;;1.93;71.09;97019.13;2079841;28;20558;-65
2022/02/06 00:34:02;;;;;;;4.55;1.25;;;;;;;1.83;71.32;97004.78;2078639;28;20238;-66
2022/02/06 00:38:03;;;;;;;11.98;1.80;;;;;;;2.04;70.56;97026.59;2079623;28;20201;-65
2022/02/06 00:39:05;;;;;;;6.82;0.90;;;;;;;1.96;70.77;97020.75;2079541;28;20204;-66
2022/02/06 00:40:07;;;;;;;6.38;1.27;;;;;;;1.96;70.78;97018.19;2079250;28;20425;-66
2022/02/06 00:41:13;;;;;;;9.35;1.52;;;;;;;1.99;70.98;97010.38;2079908;28;20197;-66
2022/02/06 00:42:16;;;;;;;4.65;1.15;;;;;;;1.97;70.93;97015.56;2079361;28;20730;-66
2022/02/06 00:43:17;;;;;;;3.20;1.45;;;;;;;2.02;70.80;97012.88;2079909;28;20208;-66
2022/02/06 00:44:19;;;;;;;4.80;1.15;;;;;;;2.02;70.90;97012.00;2079720;28;20193;-68
2022/02/06 00:45:20;;;;;;;7.68;1.30;;;;;;;2.00;70.99;97014.66;2079290;28;20197;-66
2022/02/06 00:46:23;;;;;;;1.98;0.85;;;;;;;1.99;71.05;97007.78;2079873;28;20209;-66
2022/02/06 00:47:26;;;;;;;3.40;1.02;;;;;;;2.10;70.78;96998.00;2078774;28;20216;-66
2022/02/06 00:48:32;;;;;;;5.13;1.15;;;;;;;1.97;70.91;96989.72;2079763;28;20196;-66
2022/02/06 00:49:34;;;;;;;9.65;1.23;;;;;;;2.08;70.80;96997.19;2079247;28;20859;-67
2022/02/06 00:50:40;;;;;;;9.27;1.15;;;;;;;2.04;70.86;96998.16;2070661;28;20232;-65
2022/02/06 00:51:51;;;;;;;8.10;0.85;;;;;;;2.02;71.08;96989.63;2071277;28;20206;-65
2022/02/06 00:53:02;;;;;;;7.45;1.15;;;;;;;1.97;71.12;96992.31;2077964;28;20201;-66
2022/02/06 00:54:04;;;;;;;6.35;1.13;;;;;;;1.83;71.24;96960.03;2079913;28;20197;-66
2022/02/06 00:55:05;;;;;;;4.00;0.80;;;;;;;1.89;70.94;96967.59;2079421;28;20793;-65
2022/02/06 00:56:09;;;;;;;3.28;1.10;;;;;;;2.16;70.20;96987.47;2078273;28;20255;-68
2022/02/06 00:57:10;;;;;;;3.20;1.10;;;;;;;2.15;70.21;96983.19;2078975;28;20649;-66
2022/02/06 00:58:12;;;;;;;5.63;1.27;;;;;;;2.28;69.58;96985.44;2079255;28;20204;-66
2022/02/06 00:59:13;;;;;;;4.82;1.27;;;;;;;2.20;69.85;96984.81;2081440;28;20197;-66
2022/02/06 01:00:15;;;;;;;5.50;1.60;;;;;;;2.01;70.01;96956.91;2080796;28;20204;-66
2022/02/06 01:01:16;;;;;;;3.72;1.05;;;;;;;2.17;70.17;96985.72;2081290;28;20205;-66
2022/02/06 01:02:18;;;;;;;7.25;1.10;;;;;;;2.12;70.12;96985.03;2081427;28;20202;-65
2022/02/06 01:03:19;;;;;;;3.67;1.35;;;;;;;1.95;70.32;96951.91;2079563;28;20197;-66
2022/02/06 01:04:33;;;;;;;4.53;1.15;;;;;;;2.20;70.21;96982.22;2079479;28;20209;-66
2022/02/06 01:05:37;;;;;;;4.60;1.05;;;;;;;2.15;70.08;96972.00;2080005;28;20224;-66
2022/02/06 01:06:39;;;;;;;2.28;0.75;;;;;;;2.15;70.48;96972.00;2079922;28;20201;-65
2022/02/06 01:07:40;;;;;;;6.60;1.30;;;;;;;2.05;70.45;96958.50;2081320;28;20197;-65
2022/02/06 01:08:42;;;;;;;4.45;1.00;;;;;;;2.18;70.12;96977.94;2081372;28;20201;-66
2022/02/06 01:09:43;;;;;;;2.17;1.05;;;;;;;2.08;69.94;96966.19;2080592;28;20189;-66
2022/02/06 01:10:45;;;;;;;13.60;1.17;;;;;;;2.25;69.52;96975.16;2080109;28;20263;-65
2022/02/06 01:11:48;;;;;;;5.72;1.15;;;;;;;2.24;69.34;96968.31;2081342;28;20201;-66
2022/02/06 01:13:10;;;;;;;6.68;1.00;;;;;;;2.24;69.52;96973.50;2080883;28;20204;-66
2022/02/06 01:14:29;;;;;;;8.02;1.50;;;;;;;2.25;69.40;96977.75;2081036;28;20220;-65
2022/02/06 01:15:34;;;;;;;3.85;0.80;;;;;;;2.40;68.61;96973.88;2080771;28;20224;-66
2022/02/06 01:16:41;;;;;;;2.72;0.88;;;;;;;2.42;68.10;96960.00;2081370;28;20199;-65
2022/02/06 01:18:56;;;;;;;3.17;0.95;;;;;;;2.35;68.79;96961.06;2080729;28;20208;-65
2022/02/06 01:20:06;;;;;;;6.97;0.90;;;;;;;2.28;68.17;96942.31;2081138;28;20211;-65
2022/02/06 01:21:23;;;;;;;3.47;0.90;;;;;;;2.49;67.90;96965.81;2079848;28;20217;-66
2022/02/06 01:22:28;;;;;;;4.47;1.25;;;;;;;2.36;68.43;96955.84;2080590;28;20194;-66
2022/02/06 01:24:49;;;;;;;3.75;0.98;;;;;;;2.24;68.63;96939.91;2080954;28;20198;-66
2022/02/06 01:26:08;;;;;;;7.28;1.88;;;;;;;2.38;68.28;96958.41;2080652;28;20234;-66
2022/02/06 01:27:17;;;;;;;3.95;0.90;;;;;;;2.37;68.75;96970.50;2079534;28;20197;-66
2022/02/06 01:28:26;;;;;;;4.50;0.90;;;;;;;2.41;67.66;96957.44;2081159;28;20197;-66
2022/02/06 01:30:16;;;;;;;2.50;0.90;;;;;;;2.36;68.65;96976.53;2081314;28;20198;-66
2022/02/06 01:31:04;;;;;;;6.45;0.90;;;;;;;2.24;68.69;96966.56;2076527;28;20225;-66
2022/02/06 01:32:11;;;;;;;8.35;1.00;;;;;;;2.24;69.18;96971.75;2080861;28;20204;-66
2022/02/06 01:33:21;;;;;;;4.30;0.95;;;;;;;2.23;69.22;96975.22;2081188;28;20201;-66
2022/02/06 01:34:31;;;;;;;4.55;1.60;;;;;;;2.26;68.68;96976.88;2081091;28;20204;-65
2022/02/06 01:35:45;;;;;;;3.53;1.08;;;;;;;2.28;68.41;96967.34;2079932;28;20240;-66
2022/02/06 01:37:02;;;;;;;3.10;1.30;;;;;;;2.37;68.48;96982.53;2080523;28;20201;-66
2022/02/06 01:38:16;;;;;;;2.97;0.90;;;;;;;2.33;68.49;96976.66;2080422;28;20201;-65
2022/02/06 01:41:22;;;;;;;3.05;0.90;;;;;;;2.25;69.11;96978.59;2080453;28;20216;-66
2022/02/06 01:41:55;;;;;;;8.00;1.15;;;;;;;2.11;69.19;96963.50;2075996;28;20209;-66
2022/02/06 01:43:02;;;;;;;13.15;0.90;;;;;;;2.21;69.11;96973.56;2080283;28;20198;-65
2022/02/06 01:44:10;;;;;;;11.40;1.20;;;;;;;2.18;69.23;96969.34;2080459;28;20207;-66
2022/02/06 02:00:55;;;;;;;7.07;1.10;;;;;;;2.56;68.57;96964.75;2080409;28;20225;-66
2022/02/06 02:02:18;;;;;;;3.05;1.10;;;;;;;2.49;68.51;96946.00;2080784;28;20213;-65
2022/02/06 02:09:46;;;;;;;12.50;1.15;;;;;;;2.48;68.50;96909.84;2080188;28;20221;-66
2022/02/06 02:13:49;;;;;;;5.40;0.98;;;;;;;2.84;67.78;96930.25;2051662;28;20205;-65
2022/02/06 02:15:23;;;;;;;2.85;1.02;;;;;;;2.71;68.58;96922.03;2080743;28;20202;-66
2022/02/06 02:25:50;;;;;;;2.85;0.80;;;;;;;2.47;69.90;96896.09;2080147;28;20711;-66
2022/02/06 02:48:23;;;;;;;5.40;1.15;;;;;;;2.62;70.04;96855.09;2054939;28;20207;-66
2022/02/06 02:49:29;;;;;;;7.43;1.23;;;;;;;2.61;69.94;96851.69;2055005;28;20537;-66
2022/02/06 02:50:35;;;;;;;5.65;1.00;;;;;;;2.49;70.18;96829.66;2054462;28;20238;-66
2022/02/06 02:51:42;;;;;;;3.97;1.25;;;;;;;2.52;70.19;96844.22;2054807;28;20203;-66
2022/02/06 02:53:59;;;;;;;5.15;1.48;;;;;;;2.60;70.18;96849.97;2054912;28;20258;-66
2022/02/06 02:55:16;;;;;;;5.93;1.20;;;;;;;2.61;70.09;96850.81;2054842;28;20203;-67
2022/02/06 02:56:39;;;;;;;5.13;1.25;;;;;;;2.65;70.10;96848.09;2054687;28;20753;-66
2022/02/06 02:59:28;;;;;;;4.35;1.00;;;;;;;2.68;69.51;96826.44;2043476;28;20721;-66
2022/02/06 03:00:39;;;;;;;12.77;1.30;;;;;;;2.66;70.04;96828.22;2054196;28;20220;-66
2022/02/06 03:01:52;;;;;;;3.72;0.93;;;;;;;2.62;69.99;96824.91;2054496;28;21053;-66
2022/02/06 03:03:04;;;;;;;8.57;1.58;;;;;;;2.65;69.88;96829.16;2046880;29;20206;-66
2022/02/06 03:04:06;;;;;;;3.50;1.17;;;;;;;2.58;69.78;96815.56;2040147;29;20198;-66
2022/02/06 03:05:08;;;;;;;8.65;1.25;;;;;;;2.63;69.67;96799.91;2046570;28;20200;-66
2022/02/06 03:06:10;;;;;;;3.47;1.08;;;;;;;2.77;69.43;96819.22;2054806;28;20233;-66
2022/02/06 03:07:12;;;;;;;5.40;1.35;;;;;;;2.71;69.47;96816.84;2053640;28;20203;-66
2022/02/06 03:08:13;;;;;;;9.20;1.20;;;;;;;2.70;69.93;96822.06;2054820;28;20203;-66
2022/02/06 03:09:17;;;;;;;16.02;2.35;;;;;;;2.62;69.64;96799.03;2054719;28;20205;-66
2022/02/06 03:10:42;;;;;;;5.65;1.13;;;;;;;2.79;68.85;96806.25;2054332;28;20200;-66
2022/02/06 03:11:44;;;;;;;7.80;1.00;;;;;;;2.83;68.27;96802.66;2023256;29;20295;-66
2022/02/06 03:12:50;;;;;;;2.97;1.25;;;;;;;2.86;68.71;96809.44;2023222;29;20862;-65
2022/02/06 03:14:12;;;;;;;7.85;1.45;;;;;;;2.77;69.10;96803.69;2023224;29;20883;-66
2022/02/06 03:15:26;;;;;;;3.63;1.13;;;;;;;2.71;69.63;96805.66;2022716;29;20208;-66
2022/02/06 03:16:33;;;;;;;3.03;1.15;;;;;;;2.73;69.33;96798.69;2023191;29;20203;-66
2022/02/06 03:17:37;;;;;;;5.05;0.90;;;;;;;2.82;68.91;96800.94;2023235;29;20207;-66
2022/02/06 03:19:55;;;;;;;7.60;1.50;;;;;;;2.72;68.48;96777.13;2023239;29;20705;-65
2022/02/06 03:21:00;;;;;;;4.63;1.10;;;;;;;2.68;68.94;96780.72;2022062;29;20671;-65
2022/02/06 03:22:02;;;;;;;6.70;1.35;;;;;;;2.66;69.36;96784.28;2023186;29;20209;-66
2022/02/06 03:23:05;;;;;;;6.28;1.27;;;;;;;2.69;69.56;96779.00;2028992;29;20200;-66
2022/02/06 03:24:20;;;;;;;4.20;1.10;;;;;;;2.55;68.82;96762.22;2046777;29;20204;-66
2022/02/06 03:25:24;;;;;;;4.10;1.25;;;;;;;2.81;68.16;96781.16;2046210;28;20239;-65
2022/02/06 03:26:26;;;;;;;10.65;1.08;;;;;;;2.78;68.39;96786.44;2038659;29;20196;-65
2022/02/06 03:27:28;;;;;;;8.65;1.17;;;;;;;2.75;68.44;96778.78;2038839;29;20253;-65
2022/02/06 03:28:29;;;;;;;7.32;1.13;;;;;;;2.78;68.24;96791.59;2038851;29;20213;-66
2022/02/06 03:29:31;;;;;;;5.18;1.17;;;;;;;2.67;68.61;96773.03;2038947;29;20643;-65
2022/02/06 03:30:33;;;;;;;4.60;1.73;;;;;;;2.87;68.03;96787.88;2046097;28;20699;-66
2022/02/06 03:31:37;;;;;;;4.95;1.50;;;;;;;2.71;68.43;96770.28;2046725;29;20207;-65
2022/02/06 03:32:38;;;;;;;4.72;1.38;;;;;;;2.78;68.81;96801.94;2046309;29;20195;-65
2022/02/06 03:33:40;;;;;;;6.57;1.00;;;;;;;2.79;68.33;96785.53;2038818;29;20205;-65
2022/02/06 03:34:41;;;;;;;3.05;0.90;;;;;;;2.81;68.16;96780.31;2039024;29;20197;-65
2022/02/06 03:35:47;;;;;;;5.68;1.05;;;;;;;2.80;68.56;96784.63;2046201;28;20224;-65
2022/02/06 03:36:48;;;;;;;6.43;1.58;;;;;;;2.76;68.53;96789.09;2046620;29;20206;-65
2022/02/06 03:37:50;;;;;;;2.42;1.20;;;;;;;2.73;68.58;96790.94;2046777;29;20579;-65
2022/02/06 03:38:53;;;;;;;4.95;1.13;;;;;;;2.76;68.74;96785.63;2046706;29;20208;-65
2022/02/06 03:39:56;;;;;;;8.52;1.10;;;;;;;2.60;68.77;96767.22;2046652;29;20215;-65
2022/02/06 03:41:03;;;;;;;3.70;1.30;;;;;;;2.76;68.60;96795.97;2038243;29;20235;-66
2022/02/06 03:42:09;;;;;;;10.73;1.40;;;;;;;2.89;68.15;96792.06;2038165;29;20251;-65
2022/02/06 03:43:17;;;;;;;4.22;1.10;;;;;;;2.94;67.96;96805.72;2045993;29;20644;-65
2022/02/06 03:44:34;;;;;;;6.88;1.40;;;;;;;2.71;67.90;96766.88;2046616;29;20207;-65
2022/02/06 03:45:47;;;;;;;1.63;0.85;;;;;;;2.95;67.60;96796.19;2046163;28;20227;-65
2022/02/06 03:47:01;;;;;;;5.10;1.30;;;;;;;2.93;67.76;96785.06;2046664;29;20204;-65
2022/02/06 03:48:14;;;;;;;5.40;2.10;;;;;;;2.64;68.14;96742.94;2046580;29;20202;-65
2022/02/06 03:49:27;;;;;;;8.15;1.10;;;;;;;2.90;68.12;96791.19;2046705;29;20702;-65
2022/02/06 03:50:33;;;;;;;14.43;1.27;;;;;;;2.86;68.28;96788.75;2079534;28;20231;-65
2022/02/06 03:51:37;;;;;;;2.45;1.02;;;;;;;2.74;68.71;96783.13;2079975;28;20204;-65
2022/02/06 03:52:48;;;;;;;4.63;1.20;;;;;;;2.75;68.82;96789.13;2080090;28;20645;-66
2022/02/06 03:53:52;;;;;;;8.27;0.98;;;;;;;2.65;69.05;96772.25;2080085;28;20212;-65
2022/02/06 03:54:54;;;;;;;1.52;1.02;;;;;;;2.67;69.09;96780.81;2079001;28;20201;-65
2022/02/06 03:55:58;;;;;;;3.67;1.10;;;;;;;2.67;69.03;96771.28;2078891;28;20224;-67
2022/02/06 03:57:00;;;;;;;2.55;1.30;;;;;;;2.79;68.33;96780.38;2080089;28;20197;-65
2022/02/06 03:58:01;;;;;;;3.92;1.13;;;;;;;2.72;68.70;96776.28;2080095;28;20205;-65
2022/02/06 03:59:04;;;;;;;4.25;0.95;;;;;;;2.68;68.94;96766.97;2079909;28;20213;-65
2022/02/06 04:00:06;;;;;;;3.40;1.05;;;;;;;2.75;68.93;96783.97;2079632;28;20602;-64
2022/02/06 04:01:08;;;;;;;4.05;0.93;;;;;;;2.67;69.18;96771.28;2080051;28;20668;-65
2022/02/06 04:02:09;;;;;;;1.88;1.02;;;;;;;2.63;69.00;96758.53;2080115;28;20204;-65
2022/02/06 04:03:12;;;;;;;4.22;1.00;;;;;;;2.63;69.42;96771.47;2080204;28;20666;-65
2022/02/06 04:04:13;;;;;;;4.70;1.05;;;;;;;2.59;69.58;96765.56;2079305;28;20315;-66
2022/02/06 04:05:15;;;;;;;3.63;1.15;;;;;;;2.56;69.58;96766.47;2078939;28;20829;-65
2022/02/06 04:06:16;;;;;;;7.50;1.15;;;;;;;2.61;69.46;96773.22;2079803;28;20201;-65
2022/02/06 04:07:18;;;;;;;5.05;1.00;;;;;;;2.58;69.61;96754.34;2080064;28;20209;-65
2022/02/06 04:08:20;;;;;;;4.10;0.95;;;;;;;2.51;69.74;96750.28;2080092;28;20216;-65
2022/02/06 04:09:31;;;;;;;3.67;0.90;;;;;;;2.56;69.58;96756.13;2079889;28;20197;-65
2022/02/06 04:10:41;;;;;;;8.55;1.15;;;;;;;2.51;69.63;96746.84;2079565;28;20217;-66
2022/02/06 04:11:52;;;;;;;2.83;1.00;;;;;;;2.49;69.76;96759.84;2079836;28;20189;-65
2022/02/06 04:12:53;;;;;;;11.77;2.60;;;;;;;2.48;69.98;96749.56;2079513;28;20201;-65
2022/02/06 04:14:09;;;;;;;3.72;1.13;;;;;;;2.51;70.05;96755.47;2079424;28;20204;-65
2022/02/06 04:15:21;;;;;;;8.70;1.38;;;;;;;2.43;70.43;96754.03;2078808;28;20205;-65
2022/02/06 04:16:37;;;;;;;5.68;1.00;;;;;;;2.46;70.40;96752.19;2078380;28;20198;-65
2022/02/06 04:17:49;;;;;;;6.22;1.40;;;;;;;2.41;70.29;96736.00;2079913;28;20200;-65
2022/02/06 04:18:54;;;;;;;5.03;1.00;;;;;;;2.43;70.62;96735.94;2079145;28;20216;-65
2022/02/06 04:19:56;;;;;;;2.28;0.90;;;;;;;2.35;70.97;96733.59;2079993;28;20197;-65
2022/02/06 04:20:57;;;;;;;3.25;1.10;;;;;;;2.35;71.01;96738.78;2079453;28;20229;-65
2022/02/06 04:21:59;;;;;;;6.50;1.10;;;;;;;2.39;70.58;96730.00;2080062;28;20193;-65
2022/02/06 04:23:00;;;;;;;8.75;1.30;;;;;;;2.36;70.96;96732.72;2079504;28;20201;-65
2022/02/06 04:24:02;;;;;;;2.70;1.00;;;;;;;2.30;71.00;96718.25;2079897;28;20197;-65
2022/02/06 04:25:05;;;;;;;6.53;1.00;;;;;;;2.29;71.36;96729.47;2079331;28;20201;-65
2022/02/06 04:26:06;;;;;;;6.50;1.00;;;;;;;2.07;71.29;96695.78;2079670;28;20240;-65
2022/02/06 04:27:08;;;;;;;7.95;1.10;;;;;;;2.27;71.68;96738.19;2079856;28;20201;-65
2022/02/06 04:28:10;;;;;;;4.47;1.02;;;;;;;2.21;71.79;96728.91;2078023;28;20744;-65
2022/02/06 04:29:12;;;;;;;6.97;1.58;;;;;;;2.19;71.83;96722.94;2079804;28;20592;-65
2022/02/06 04:30:13;;;;;;;4.38;1.30;;;;;;;2.20;72.04;96728.97;2079660;28;20196;-66
2022/02/06 04:31:14;;;;;;;2.40;1.60;;;;;;;2.20;72.14;96728.97;2079915;28;20211;-65
2022/02/06 04:32:17;;;;;;;5.13;1.05;;;;;;;2.21;72.12;96733.22;2078351;28;20201;-65
2022/02/06 04:33:19;;;;;;;5.95;1.15;;;;;;;2.21;72.00;96733.22;2081651;28;20192;-65
2022/02/06 04:34:23;;;;;;;2.10;1.00;;;;;;;2.18;72.04;96723.84;2081682;28;20663;-65
2022/02/06 04:35:30;;;;;;;8.77;1.75;;;;;;;2.22;72.28;96732.34;2081156;28;20398;-65
2022/02/06 04:39:25;;;;;;;3.65;1.00;;;;;;;2.33;71.70;96728.50;2080696;28;20208;-66
2022/02/06 04:40:46;;;;;;;4.57;1.00;;;;;;;2.29;72.37;96737.22;2080842;28;20224;-65
2022/02/06 04:43:29;;;;;;;1.92;1.10;;;;;;;2.32;71.96;96728.56;2081578;28;20215;-65
2022/02/06 04:46:25;;;;;;;4.15;1.10;;;;;;;2.24;72.59;96738.31;2080935;28;20220;-65
2022/02/06 04:56:05;;;;;;;9.50;1.38;;;;;;;2.25;72.71;96707.22;2080858;28;20232;-66
2022/02/06 05:15:14;;;;;;;6.93;1.40;;;;;;;2.24;73.28;96674.53;2081385;28;20224;-65
2022/02/06 05:22:26;;;;;;;5.28;1.08;;;;;;;2.37;72.59;96674.94;2080002;28;20382;-65
2022/02/06 05:30:14;;;;;;;15.98;1.40;;;;;;;2.16;73.39;96668.78;2081287;28;20185;-65
2022/02/06 05:31:12;;;;;;;3.05;1.00;;;;;;;2.03;73.46;96654.59;2066502;28;20224;-65
2022/02/06 05:33:18;;;;;;;7.65;1.67;;;;;;;2.18;73.42;96682.50;2081091;28;20193;-65
2022/02/06 05:34:19;;;;;;;8.35;1.40;;;;;;;2.23;73.35;96685.75;2080437;28;20205;-65
2022/02/06 05:35:22;;;;;;;11.98;1.80;;;;;;;2.16;73.26;96677.38;2080101;28;20213;-65
2022/02/06 05:36:24;;;;;;;4.38;1.25;;;;;;;2.17;73.67;96691.97;2081151;28;20197;-65
2022/02/06 05:37:26;;;;;;;7.90;1.70;;;;;;;2.05;73.87;96671.72;2081040;28;20204;-65
2022/02/06 05:38:28;;;;;;;4.22;1.13;;;;;;;2.07;73.88;96674.25;2081171;28;20277;-65
2022/02/06 05:39:29;;;;;;;6.80;1.33;;;;;;;2.18;73.84;96688.50;2080922;28;20209;-65
2022/02/06 05:40:31;;;;;;;4.55;0.93;;;;;;;2.19;73.70;96702.25;2080550;28;20220;-65
2022/02/06 05:41:32;;;;;;;5.10;1.20;;;;;;;2.21;73.81;96707.38;2081168;28;20197;-65
2022/02/06 05:42:34;;;;;;;5.75;1.50;;;;;;;2.21;73.85;96705.63;2081023;28;20220;-66
2022/02/06 05:43:36;;;;;;;6.88;1.10;;;;;;;2.22;73.99;96709.94;2080887;28;20668;-65
2022/02/06 05:44:38;;;;;;;5.50;1.10;;;;;;;2.21;73.78;96707.38;2080326;28;20602;-65
2022/02/06 05:45:40;;;;;;;4.95;1.25;;;;;;;2.24;73.79;96717.63;2079806;28;20314;-65
2022/02/06 05:46:42;;;;;;;3.17;0.90;;;;;;;2.28;73.65;96716.63;2072323;28;20229;-65
2022/02/06 05:47:44;;;;;;;3.53;1.27;;;;;;;2.23;73.82;96695.25;2080538;28;20205;-65
2022/02/06 05:48:45;;;;;;;8.73;1.50;;;;;;;2.27;73.89;96709.75;2080362;28;20201;-65
2022/02/06 05:49:47;;;;;;;4.95;1.23;;;;;;;2.29;73.70;96702.78;2080536;28;20761;-65
2022/02/06 05:50:48;;;;;;;5.10;1.23;;;;;;;2.29;73.56;96702.78;2080583;28;20604;-66
2022/02/06 05:51:50;;;;;;;5.35;1.40;;;;;;;2.27;73.79;96708.00;2080812;28;20264;-65
2022/02/06 05:52:51;;;;;;;7.38;1.23;;;;;;;2.26;73.92;96713.25;2080446;28;20201;-65
2022/02/06 05:53:54;;;;;;;4.68;1.10;;;;;;;2.20;74.28;96721.22;2080709;28;20667;-65
2022/02/06 05:54:57;;;;;;;5.95;1.35;;;;;;;2.23;74.19;96726.25;2081005;28;20272;-65
2022/02/06 05:55:59;;;;;;;4.00;1.20;;;;;;;2.05;74.31;96684.66;2080243;28;20225;-66
2022/02/06 05:57:00;;;;;;;3.28;1.15;;;;;;;2.03;74.62;96681.28;2081026;28;20678;-66
2022/02/06 05:58:02;;;;;;;7.65;1.55;;;;;;;2.01;74.28;96669.31;2081081;28;20641;-66
2022/02/06 05:59:04;;;;;;;8.60;1.40;;;;;;;2.14;74.33;96699.84;2080970;28;20553;-65
2022/02/06 06:00:06;;;;;;;3.50;1.10;;;;;;;2.17;74.47;96699.72;2079005;28;20213;-65
2022/02/06 06:01:07;;;;;;;2.28;0.85;;;;;;;1.91;73.98;96656.69;2080949;28;20208;-66
2022/02/06 06:02:09;;;;;;;4.57;1.10;;;;;;;2.21;74.38;96704.81;2080016;28;20197;-66
2022/02/06 06:03:11;;;;;;;3.20;1.08;;;;;;;2.18;74.20;96698.00;2080848;28;20193;-66
2022/02/06 06:04:12;;;;;;;11.77;1.20;;;;;;;2.00;74.48;96681.38;2080971;28;20204;-67
2022/02/06 06:05:14;;;;;;;10.23;1.20;;;;;;;2.24;74.21;96702.13;2080544;28;20588;-67
2022/02/06 06:06:15;;;;;;;5.53;2.05;;;;;;;2.27;74.25;96697.66;2079054;28;20201;-67
2022/02/06 06:07:17;;;;;;;12.85;1.40;;;;;;;2.15;74.43;96696.34;2080358;28;20582;-64
2022/02/06 06:08:20;;;;;;;9.00;1.58;;;;;;;2.11;74.85;96679.25;2080985;28;20202;-64
2022/02/06 06:09:22;;;;;;;7.93;1.35;;;;;;;2.16;74.65;96703.22;2080835;28;20212;-65
2022/02/06 06:10:23;;;;;;;9.40;1.63;;;;;;;2.16;74.44;96695.47;2080008;28;20228;-64
2022/02/06 06:11:25;;;;;;;5.63;1.45;;;;;;;2.16;74.79;96699.81;2080984;28;20636;-64
2022/02/06 06:12:26;;;;;;;12.52;1.20;;;;;;;1.96;74.76;96664.28;2080840;28;20201;-65
2022/02/06 06:13:28;;;;;;;3.65;1.33;;;;;;;2.24;74.50;96692.63;2080812;28;20197;-64
2022/02/06 06:14:31;;;;;;;6.25;1.25;;;;;;;2.17;74.71;96681.63;2080508;28;20597;-65
2022/02/06 06:15:32;;;;;;;8.20;1.40;;;;;;;2.17;74.95;96691.97;2080307;28;20240;-65
2022/02/06 06:16:34;;;;;;;1.70;0.90;;;;;;;2.26;74.37;96701.16;2078948;28;20208;-65
2022/02/06 06:17:37;;;;;;;5.32;1.10;;;;;;;2.23;74.71;96692.66;2080074;28;20194;-65
2022/02/06 06:18:39;;;;;;;3.28;1.20;;;;;;;2.23;74.61;96700.44;2078656;28;20197;-66
2022/02/06 06:19:46;;;;;;;6.38;1.15;;;;;;;2.18;74.65;96698.00;2079953;28;20197;-65
2022/02/06 06:20:50;;;;;;;6.95;1.38;;;;;;;2.24;74.54;96690.03;2080031;28;20754;-65
2022/02/06 06:21:56;;;;;;;4.50;1.00;;;;;;;2.23;74.46;96709.00;2079855;28;20215;-66
2022/02/06 06:22:58;;;;;;;4.80;1.00;;;;;;;2.10;74.65;96687.94;2079278;28;20719;-64
2022/02/06 06:24:00;;;;;;;4.28;1.08;;;;;;;2.23;74.83;96698.69;2079776;28;20200;-64
2022/02/06 06:25:03;;;;;;;6.55;1.27;;;;;;;2.09;74.58;96668.13;2080189;28;20544;-65
2022/02/06 06:26:05;;;;;;;2.22;1.13;;;;;;;2.23;75.04;96692.66;2080461;28;20250;-64
2022/02/06 06:27:07;;;;;;;3.15;1.23;;;;;;;2.18;74.97;96685.09;2080712;28;20288;-64
2022/02/06 06:28:08;;;;;;;17.65;1.20;;;;;;;2.22;75.05;96686.66;2080039;28;20604;-65
2022/02/06 06:29:10;;;;;;;1.30;0.90;;;;;;;2.24;74.70;96694.38;2080157;28;20224;-65
2022/02/06 06:30:12;;;;;;;6.80;1.98;;;;;;;2.21;74.92;96676.38;2080307;28;20739;-64
2022/02/06 06:31:13;;;;;;;4.32;1.20;;;;;;;2.11;75.44;96676.69;2080403;28;20200;-65
2022/02/06 06:32:15;;;;;;;5.00;1.40;;;;;;;2.11;75.43;96666.34;2080740;28;20201;-65
2022/02/06 06:33:17;;;;;;;2.90;0.82;;;;;;;2.13;75.24;96664.56;2080558;28;20212;-65
2022/02/06 06:34:27;;;;;;;3.15;0.85;;;;;;;2.17;75.45;96660.13;2080298;28;20208;-65
2022/02/06 06:35:30;;;;;;;5.18;0.80;;;;;;;2.06;75.15;96641.56;2080084;28;20231;-65
2022/02/06 06:36:34;;;;;;;8.85;2.05;;;;;;;2.24;75.18;96658.19;2079867;28;20205;-65
2022/02/06 06:37:39;;;;;;;3.97;0.90;;;;;;;2.13;74.96;96641.28;2079939;28;20201;-64
2022/02/06 06:38:41;;;;;;;7.40;0.90;;;;;;;2.14;75.10;96655.09;2080628;28;20239;-65
2022/02/06 06:39:44;;;;;;;2.00;1.30;;;;;;;2.04;75.00;96620.97;2080632;28;20208;-65
2022/02/06 06:40:46;;;;;;;2.70;1.05;;;;;;;2.28;74.98;96663.19;2079909;28;20221;-65
2022/02/06 06:41:48;;;;;;;7.40;1.60;;;;;;;2.30;75.12;96670.91;2080510;28;20663;-65
2022/02/06 06:42:50;;;;;;;4.18;1.00;;;;;;;2.30;75.04;96665.72;2080513;28;20204;-65
2022/02/06 06:43:51;;;;;;;12.80;1.27;;;;;;;2.36;74.68;96678.44;2080797;28;20558;-67
2022/02/06 06:44:53;;;;;;;6.25;1.08;;;;;;;2.29;75.08;96667.44;2080503;28;20208;-67
2022/02/06 06:45:54;;;;;;;3.85;1.10;;;;;;;2.35;74.95;96663.81;2079974;28;20327;-67
2022/02/06 06:46:56;;;;;;;4.50;1.13;;;;;;;2.37;74.54;96668.06;2080584;28;20224;-67
2022/02/06 06:47:58;;;;;;;3.67;1.25;;;;;;;2.18;74.73;96633.41;2080464;28;20197;-67
2022/02/06 06:49:00;;;;;;;6.70;1.25;;;;;;;2.35;74.76;96656.91;2080591;28;20555;-67
2022/02/06 06:50:04;;;;;;;9.68;1.42;;;;;;;2.24;74.65;96640.94;2080597;28;20584;-67
2022/02/06 06:51:08;;;;;;;5.70;1.20;;;;;;;2.40;74.43;96666.25;2079523;28;20577;-67
2022/02/06 06:52:10;;;;;;;7.28;1.50;;;;;;;2.39;74.62;96662.81;2080326;28;20229;-67
2022/02/06 06:53:12;;;;;;;7.82;1.17;;;;;;;2.42;74.25;96654.13;2080274;28;20193;-67
2022/02/06 06:54:18;;;;;;;4.05;1.15;;;;;;;2.42;74.55;96659.28;2080542;28;20197;-67
2022/02/06 06:55:21;;;;;;;5.90;1.00;;;;;;;2.41;74.24;96650.69;2078651;28;20293;-67
2022/02/06 06:56:33;;;;;;;2.22;1.02;;;;;;;2.47;74.24;96652.19;2080537;28;20609;-67
2022/02/06 06:57:40;;;;;;;8.15;1.35;;;;;;;2.47;74.22;96655.66;2080352;28;20201;-67
2022/02/06 06:58:49;;;;;;;4.93;1.00;;;;;;;2.51;73.64;96662.38;2080234;28;20197;-67
2022/02/06 07:01:07;;;;;;;2.67;1.10;;;;;;;2.48;73.84;96657.31;2079909;28;20594;-67
2022/02/06 07:02:17;;;;;;;4.35;1.33;;;;;;;2.56;73.70;96650.13;2080129;28;20291;-64
2022/02/06 07:03:18;;;;;;;3.55;1.63;;;;;;;2.60;73.53;96655.19;2079660;28;20208;-65
2022/02/06 07:04:20;;;;;;;22.50;3.15;;;;;;;2.57;73.77;96648.41;2080356;28;20679;-65
2022/02/06 07:05:30;;;;;;;7.82;1.15;;;;;;;2.63;73.46;96660.28;2079634;28;20228;-65
2022/02/06 07:06:31;;;;;;;4.78;0.98;;;;;;;2.65;73.55;96650.72;2080410;28;20201;-64